Time;durP1;ratioP1;P1;durP2;ratioP2;P2;SDS_P1;SDS_P2;PMS_P1;PMS_P2;Temp;Humidity;BMP_temperature;BMP_pressure;BME280_temperature;BME280_humidity;BME280_pressure;Samples;Min_cycle;Max_cycle;Signal;HPM_P1;HPM_P2
2022/03/16 00:00:31;;;;;;;30.20;16.20;;;7.80;99.00;;;7.75;68.46;101903.22;4954361;28;20278;-74
2022/03/16 00:03:00;;;;;;;20.95;14.93;;;7.80;99.40;;;7.67;68.63;101906.72;4954612;29;20243;-75
2022/03/16 00:05:29;;;;;;;19.92;15.35;;;7.70;99.90;;;7.60;69.15;101910.22;4956031;29;20247;-73
2022/03/16 00:07:58;;;;;;;26.27;15.23;;;7.70;99.90;;;7.75;68.69;101908.59;4959808;29;20192;-73
2022/03/16 00:10:32;;;;;;;23.05;16.20;;;7.70;99.90;;;7.82;68.42;101909.69;4958063;28;20291;-74
2022/03/16 00:13:02;;;;;;;25.00;15.35;;;7.80;99.90;;;7.71;68.94;101905.41;4959187;29;20549;-73
2022/03/16 00:15:31;;;;;;;26.27;17.45;;;7.80;99.90;;;7.60;69.14;101905.66;4936325;29;20259;-73
2022/03/16 00:18:00;;;;;;;20.80;14.93;;;7.70;99.90;;;7.61;69.52;101912.72;4953614;29;20188;-73
2022/03/16 00:20:29;;;;;;;21.42;14.98;;;7.70;99.90;;;7.59;69.51;101913.91;4953666;28;20219;-73
2022/03/16 00:22:58;;;;;;;23.63;14.38;;;7.60;99.90;;;7.47;70.01;101909.78;4953565;29;20678;-72
2022/03/16 00:25:27;;;;;;;21.30;14.82;;;7.50;99.90;;;7.55;69.85;101912.53;4953317;29;20196;-73
2022/03/16 00:27:56;;;;;;;31.85;17.00;;;7.60;99.90;;;7.48;70.52;101911.47;4952426;29;20255;-73
2022/03/16 00:30:26;;;;;;;25.70;16.02;;;7.50;99.90;;;7.36;70.53;101919.78;4953228;28;20208;-74
2022/03/16 00:32:56;;;;;;;24.67;15.38;;;7.40;99.90;;;7.28;71.10;101933.19;4953719;29;20219;-73
2022/03/16 00:35:25;;;;;;;28.05;17.65;;;7.40;99.90;;;7.19;71.63;101928.75;4953013;29;20594;-73
2022/03/16 00:37:54;;;;;;;26.05;16.13;;;7.30;99.90;;;7.19;71.85;101928.75;4953566;29;20833;-73
2022/03/16 00:40:23;;;;;;;22.95;17.33;;;7.30;99.90;;;7.11;72.28;101926.00;4951990;28;20762;-73
2022/03/16 00:42:52;;;;;;;23.15;16.55;;;7.20;99.90;;;7.09;72.43;101930.69;4953446;29;20228;-73
2022/03/16 00:45:21;;;;;;;33.30;19.27;;;7.20;99.90;;;7.04;72.44;101926.75;4957888;28;20191;-73
2022/03/16 00:47:52;;;;;;;27.67;19.25;;;7.10;99.90;;;7.10;72.62;101924.28;4942545;29;20198;-72
2022/03/16 00:50:21;;;;;;;25.00;16.98;;;7.20;99.90;;;7.05;72.69;101915.00;4959562;28;20746;-73
2022/03/16 00:52:50;;;;;;;33.97;20.60;;;7.10;99.90;;;7.02;73.12;101918.00;4960315;28;20196;-73
2022/03/16 00:55:19;;;;;;;23.73;18.13;;;7.10;99.90;;;6.98;72.77;101910.22;4961324;29;20267;-73
2022/03/16 00:57:49;;;;;;;29.40;21.83;;;7.10;99.90;;;6.91;73.30;101919.06;4961823;28;20248;-73
2022/03/16 01:00:18;;;;;;;27.88;17.98;;;7.10;99.90;;;6.91;73.30;101919.91;4960321;28;20561;-73
2022/03/16 01:02:47;;;;;;;29.23;18.33;;;7.10;99.90;;;6.96;73.08;101923.00;4959949;28;20176;-73
2022/03/16 01:05:18;;;;;;;27.55;17.27;;;7.10;99.90;;;6.90;73.17;101922.75;4959914;29;20178;-73
2022/03/16 01:07:47;;;;;;;23.05;17.38;;;7.00;99.90;;;6.72;73.71;101924.59;4960187;29;20169;-73
2022/03/16 01:10:17;;;;;;;28.75;18.90;;;6.90;99.90;;;6.64;74.34;101921.78;4960139;28;20227;-73
2022/03/16 01:12:46;;;;;;;23.35;18.05;;;6.80;99.90;;;6.60;74.54;101920.41;4959243;29;20192;-73
2022/03/16 01:15:15;;;;;;;26.23;17.60;;;6.70;99.90;;;6.66;74.82;101925.19;4960147;28;20298;-72
2022/03/16 01:17:44;;;;;;;35.35;19.95;;;6.80;99.90;;;6.58;74.98;101922.44;4963215;28;20202;-73
2022/03/16 01:20:13;;;;;;;29.45;19.63;;;6.70;99.90;;;6.47;75.24;101920.78;4961908;28;20208;-74
2022/03/16 01:22:44;;;;;;;42.08;22.30;;;6.60;99.90;;;6.46;75.62;101924.47;4961412;29;20262;-75
2022/03/16 01:25:13;;;;;;;36.22;24.52;;;6.60;99.90;;;6.30;75.74;101916.19;4959821;29;20176;-73
2022/03/16 01:27:42;;;;;;;35.40;25.13;;;6.50;99.90;;;6.26;76.37;101920.19;4959763;29;20188;-73
2022/03/16 01:30:13;;;;;;;42.55;26.95;;;6.50;99.90;;;6.25;76.85;101926.53;4959336;28;20726;-73
2022/03/16 01:32:43;;;;;;;69.90;63.15;;;6.40;99.90;;;6.24;76.54;101931.09;4958216;29;20196;-73
2022/03/16 01:35:13;;;;;;;52.15;41.58;;;6.40;99.90;;;6.31;76.80;101932.19;4959735;28;20248;-73
2022/03/16 01:37:45;;;;;;;73.40;51.13;;;6.40;99.90;;;6.13;77.01;101927.75;4959781;28;20648;-74
2022/03/16 01:40:14;;;;;;;82.93;53.30;;;6.30;99.90;;;5.96;77.49;101924.00;4959481;28;20682;-73
2022/03/16 01:42:43;;;;;;;77.85;50.95;;;6.20;99.90;;;5.90;77.69;101929.97;4960918;29;20169;-73
2022/03/16 01:45:13;;;;;;;61.08;35.22;;;6.10;99.90;;;6.02;77.72;101926.09;4945115;29;20664;-72
2022/03/16 01:47:42;;;;;;;39.20;25.30;;;6.20;99.90;;;6.00;77.54;101930.78;4944892;29;20271;-73
2022/03/16 01:50:11;;;;;;;35.28;20.75;;;6.10;99.90;;;5.94;77.38;101932.22;4961535;28;20212;-73
2022/03/16 01:52:41;;;;;;;31.85;18.83;;;6.10;99.90;;;5.98;78.02;101935.44;4962601;28;20227;-73
2022/03/16 01:55:12;;;;;;;29.17;18.15;;;6.10;99.90;;;5.99;77.68;101929.94;4962583;29;20176;-73
2022/03/16 01:57:46;;;;;;;33.10;23.20;;;6.10;99.90;;;5.93;77.96;101946.63;4939280;29;20199;-73
2022/03/16 02:00:18;;;;;;;37.80;20.55;;;6.10;99.90;;;5.77;78.20;101938.31;4955799;28;20220;-73
2022/03/16 02:02:47;;;;;;;40.70;21.70;;;6.00;99.90;;;5.76;78.62;101947.34;4955902;29;20219;-73
2022/03/16 02:05:16;;;;;;;38.40;22.33;;;5.90;99.90;;;5.72;79.23;101945.94;4956930;29;20655;-73
2022/03/16 02:07:45;;;;;;;35.85;20.42;;;5.90;99.90;;;5.63;78.75;101947.66;4957532;29;20188;-74
2022/03/16 02:10:17;;;;;;;36.22;21.83;;;5.80;99.90;;;5.60;79.25;101952.50;4958977;28;20211;-73
2022/03/16 02:12:49;;;;;;;34.95;21.05;;;5.80;99.90;;;5.62;78.89;101951.34;4959288;29;20187;-73
2022/03/16 02:15:19;;;;;;;32.25;20.58;;;5.80;99.90;;;5.50;79.21;101957.03;4957905;28;20575;-73
2022/03/16 02:17:50;;;;;;;36.20;21.85;;;5.70;99.90;;;5.43;79.61;101962.13;4959024;29;20228;-73
2022/03/16 02:20:20;;;;;;;37.60;21.42;;;5.70;99.90;;;5.46;79.52;101967.22;4958921;28;20203;-74
2022/03/16 02:22:56;;;;;;;32.45;21.25;;;5.60;99.90;;;5.39;79.89;101968.75;4959131;29;20176;-73
2022/03/16 02:25:27;;;;;;;29.90;18.02;;;5.60;99.90;;;5.39;79.72;101967.91;4958314;29;20184;-72
2022/03/16 02:27:58;;;;;;;36.53;20.35;;;5.60;99.90;;;5.36;79.70;101971.75;4958265;29;20188;-73
2022/03/16 02:30:30;;;;;;;32.80;18.38;;;5.60;99.90;;;5.23;80.09;101987.25;4958326;28;20219;-74
2022/03/16 02:32:59;;;;;;;29.05;18.63;;;5.50;99.90;;;5.27;80.18;101986.00;4959200;29;20191;-72
2022/03/16 02:35:31;;;;;;;30.08;19.17;;;5.50;99.90;;;5.31;79.95;101990.09;4959130;29;20260;-72
2022/03/16 02:38:03;;;;;;;27.58;17.85;;;5.50;99.90;;;5.34;80.43;101997.88;4956921;29;20618;-73
2022/03/16 02:40:33;;;;;;;29.13;17.55;;;5.50;99.90;;;5.25;80.22;102001.41;4957235;28;20240;-75
2022/03/16 02:43:03;;;;;;;22.77;18.00;;;5.40;99.90;;;5.16;80.52;102013.84;4958611;29;20185;-73
2022/03/16 02:45:32;;;;;;;29.42;16.45;;;5.40;99.90;;;5.00;80.87;102013.50;4959719;29;20180;-73
2022/03/16 02:48:01;;;;;;;29.35;18.60;;;5.30;99.90;;;5.02;81.32;102016.91;4958732;29;20611;-73
2022/03/16 02:50:31;;;;;;;27.88;18.27;;;5.30;99.90;;;4.95;80.96;102021.13;4957670;28;20211;-74
2022/03/16 02:53:02;;;;;;;29.00;17.88;;;5.20;99.90;;;4.97;81.15;102029.06;4957863;29;20516;-73
2022/03/16 02:55:51;;;;;;;28.98;18.30;;;5.20;99.90;;;5.00;81.52;102034.13;4958233;29;20215;-74
2022/03/16 02:58:20;;;;;;;25.55;17.45;;;5.20;99.90;;;4.99;81.48;102037.78;4957297;29;20187;-73
2022/03/16 03:00:49;;;;;;;25.35;19.23;;;5.20;99.90;;;5.15;81.30;102038.13;4957097;28;20204;-73
2022/03/16 03:03:19;;;;;;;27.45;19.27;;;5.20;99.90;;;5.00;81.31;102043.03;4941170;29;20202;-74
2022/03/16 03:05:48;;;;;;;29.23;20.17;;;5.20;99.90;;;4.88;81.32;102051.34;4958774;29;20196;-73
2022/03/16 03:08:18;;;;;;;29.85;17.63;;;5.10;99.90;;;4.81;81.47;102056.41;4960573;28;20180;-73
2022/03/16 03:10:48;;;;;;;32.42;18.05;;;5.10;99.90;;;5.04;81.08;102057.84;4968492;28;20208;-73
2022/03/16 03:13:17;;;;;;;29.10;20.33;;;5.20;99.90;;;5.05;81.05;102064.06;4968175;29;20188;-74
2022/03/16 03:15:47;;;;;;;29.73;17.90;;;5.20;99.90;;;4.98;81.29;102068.31;4969595;29;20212;-74
2022/03/16 03:18:16;;;;;;;29.35;18.88;;;5.20;99.90;;;5.07;81.03;102073.69;4969760;29;20184;-74
2022/03/16 03:20:45;;;;;;;21.85;16.92;;;5.20;99.90;;;5.16;80.54;102083.59;4967971;28;20216;-74
2022/03/16 03:23:14;;;;;;;33.15;19.35;;;5.30;99.90;;;5.13;80.65;102085.72;4969106;29;20216;-74
2022/03/16 03:25:44;;;;;;;34.28;18.88;;;5.30;99.90;;;5.02;80.56;102092.03;4968049;29;20192;-75
2022/03/16 03:28:14;;;;;;;39.97;20.00;;;5.20;99.90;;;5.00;80.89;102087.78;4969965;29;20176;-74
2022/03/16 03:30:43;;;;;;;29.10;16.80;;;5.20;99.90;;;4.99;80.99;102094.13;4969506;28;20216;-74
2022/03/16 03:33:12;;;;;;;41.15;19.48;;;5.10;99.90;;;4.86;81.32;102096.22;4970318;29;20301;-74
2022/03/16 03:35:41;;;;;;;27.50;18.55;;;5.10;99.90;;;4.76;81.38;102107.75;4969096;29;20579;-74
2022/03/16 03:38:10;;;;;;;27.88;19.20;;;5.00;99.90;;;4.72;81.88;102110.84;4969504;29;20220;-74
2022/03/16 03:40:39;;;;;;;28.33;18.52;;;4.90;99.90;;;4.73;81.42;102118.75;4968500;28;20231;-74
2022/03/16 03:43:09;;;;;;;30.90;18.65;;;4.90;99.90;;;4.59;81.70;102124.50;4968026;29;20196;-74
2022/03/16 03:45:38;;;;;;;34.42;21.20;;;4.80;99.90;;;4.59;82.29;102116.44;4969333;29;20200;-74
2022/03/16 03:48:07;;;;;;;30.58;19.23;;;4.80;99.90;;;4.51;82.51;102123.44;4969094;29;20235;-74
2022/03/16 03:50:36;;;;;;;28.63;19.58;;;4.80;99.90;;;4.54;82.74;102124.03;4968762;28;20230;-73
2022/03/16 03:53:05;;;;;;;33.33;19.25;;;4.70;99.90;;;4.51;82.47;102131.47;4967040;29;20212;-72
2022/03/16 03:55:34;;;;;;;30.08;18.65;;;4.70;99.90;;;4.46;82.78;102125.66;4968427;29;20277;-74
2022/03/16 03:58:03;;;;;;;34.65;20.58;;;4.70;99.90;;;4.46;82.87;102129.19;4969447;29;20180;-74
2022/03/16 04:00:34;;;;;;;32.45;21.58;;;4.70;99.90;;;4.42;82.99;102135.81;4981967;23;20231;-76
2022/03/16 04:03:03;;;;;;;38.47;21.52;;;4.60;99.90;;;4.44;82.57;102122.28;4953544;29;20183;-76
2022/03/16 04:05:33;;;;;;;37.90;18.88;;;4.60;99.90;;;4.48;82.95;102129.06;4956454;29;20247;-73
2022/03/16 04:08:02;;;;;;;33.13;22.08;;;4.70;99.90;;;4.41;83.18;102133.25;4964960;29;20180;-73
2022/03/16 04:10:31;;;;;;;34.03;21.45;;;4.70;99.90;;;4.26;83.27;102130.91;4964219;28;20223;-72
2022/03/16 04:13:00;;;;;;;29.92;21.10;;;4.60;99.90;;;4.40;83.10;102135.09;4963724;29;20165;-73
2022/03/16 04:15:29;;;;;;;26.73;19.67;;;4.60;99.90;;;4.51;82.84;102136.84;4964643;29;20176;-71
2022/03/16 04:18:00;;;;;;;34.20;22.98;;;4.60;99.90;;;4.37;83.28;102140.72;4965413;29;20192;-72
2022/03/16 04:20:29;;;;;;;29.60;21.65;;;4.60;99.90;;;4.38;83.30;102148.63;4963339;28;20215;-74
2022/03/16 04:22:58;;;;;;;33.20;19.95;;;4.60;99.90;;;4.35;83.43;102153.41;4954890;29;20184;-75
2022/03/16 04:25:28;;;;;;;33.05;21.85;;;4.60;99.90;;;4.34;83.52;102152.56;4953928;29;20238;-76
2022/03/16 04:27:56;;;;;;;30.35;19.75;;;4.50;99.90;;;4.36;82.96;102153.25;4955052;29;20184;-75
2022/03/16 04:30:26;;;;;;;32.40;19.58;;;4.50;99.90;;;4.36;82.87;102152.41;4953713;28;20287;-73
2022/03/16 04:32:55;;;;;;;35.08;21.92;;;4.50;99.90;;;4.25;83.29;102158.72;4953134;29;20271;-74
2022/03/16 04:35:25;;;;;;;43.05;21.98;;;4.40;99.90;;;4.13;83.22;102157.06;4952956;29;20567;-73
2022/03/16 04:37:54;;;;;;;38.38;22.60;;;4.40;99.90;;;4.05;83.56;102170.25;4953061;29;20192;-74
2022/03/16 04:40:23;;;;;;;39.05;22.45;;;4.30;99.90;;;4.08;83.46;102178.03;4953029;28;20262;-75
2022/03/16 04:42:52;;;;;;;41.67;22.20;;;4.30;99.90;;;3.93;83.71;102177.47;4952905;29;20177;-74
2022/03/16 04:45:21;;;;;;;38.35;22.67;;;4.20;99.90;;;3.81;84.41;102181.19;4953094;29;20177;-74
2022/03/16 04:47:50;;;;;;;43.92;22.70;;;4.10;99.90;;;3.72;84.15;102179.28;4953095;29;20180;-74
2022/03/16 04:50:19;;;;;;;35.55;21.67;;;4.00;99.90;;;3.85;84.36;102190.66;4954590;28;20219;-75
2022/03/16 04:52:50;;;;;;;37.50;21.80;;;4.00;99.90;;;3.85;84.22;102188.00;4954984;29;20176;-74
2022/03/16 04:55:19;;;;;;;34.25;22.60;;;4.10;99.90;;;3.79;84.38;102191.16;4954378;29;20196;-74
2022/03/16 04:57:48;;;;;;;43.30;23.67;;;4.00;99.90;;;3.76;84.70;102196.78;4954793;29;20206;-76
2022/03/16 05:00:18;;;;;;;37.75;23.17;;;4.00;99.90;;;3.77;84.27;102203.00;4953527;28;20212;-73
2022/03/16 05:02:47;;;;;;;36.50;22.48;;;4.00;99.90;;;3.78;84.57;102202.84;4952778;28;20243;-73
2022/03/16 05:05:16;;;;;;;35.10;22.50;;;4.00;99.90;;;3.69;84.67;102202.75;4952844;29;20211;-75
2022/03/16 05:07:45;;;;;;;39.33;23.58;;;3.90;99.90;;;3.68;84.73;102212.59;4951651;28;20705;-74
2022/03/16 05:10:16;;;;;;;42.97;23.38;;;3.90;99.90;;;3.77;84.59;102209.22;4967513;28;20531;-75
2022/03/16 05:12:46;;;;;;;41.13;24.65;;;3.90;99.90;;;3.71;84.67;102212.38;4973210;28;20481;-74
2022/03/16 05:15:18;;;;;;;42.97;23.67;;;3.90;99.90;;;3.71;84.36;102209.69;4988200;28;20602;-71
2022/03/16 05:17:49;;;;;;;48.50;25.80;;;3.90;99.90;;;3.62;84.65;102210.47;4973770;28;20195;-74
2022/03/16 05:20:18;;;;;;;43.28;24.38;;;3.90;99.90;;;3.62;85.10;102207.78;4997411;28;20234;-70
2022/03/16 05:22:49;;;;;;;40.47;24.65;;;3.80;99.90;;;3.59;84.94;102210.69;4994507;28;20191;-72
2022/03/16 05:25:25;;;;;;;50.35;24.95;;;3.80;99.90;;;3.66;84.90;102211.91;4975986;28;20203;-76
2022/03/16 05:27:56;;;;;;;37.05;23.25;;;3.80;99.90;;;3.60;85.15;102216.91;4967329;28;20223;-74
2022/03/16 05:30:27;;;;;;;43.63;24.08;;;3.80;99.90;;;3.63;85.12;102217.50;4957041;28;20216;-73
2022/03/16 05:33:00;;;;;;;38.05;23.63;;;3.80;99.90;;;3.60;85.11;102225.78;4958218;29;20215;-77
2022/03/16 05:35:31;;;;;;;31.27;22.65;;;3.80;99.90;;;3.64;85.13;102221.88;4956794;29;20212;-74
2022/03/16 05:38:05;;;;;;;39.53;25.77;;;3.80;99.90;;;3.66;85.47;102229.78;4955995;29;20639;-74
2022/03/16 05:40:36;;;;;;;38.42;24.48;;;3.80;99.90;;;3.66;85.36;102225.28;4957643;28;20593;-74
2022/03/16 05:43:05;;;;;;;41.10;22.88;;;3.80;99.90;;;3.66;85.66;102233.31;4958462;29;20179;-75
2022/03/16 05:45:34;;;;;;;36.50;24.70;;;3.80;99.90;;;3.85;84.82;102233.50;4960876;29;20176;-73
2022/03/16 05:48:04;;;;;;;37.17;22.17;;;3.90;99.90;;;3.85;85.25;102233.50;4974709;28;20200;-75
2022/03/16 05:50:33;;;;;;;40.20;25.05;;;3.90;99.90;;;3.83;84.82;102237.28;4956204;28;20219;-74
2022/03/16 05:53:04;;;;;;;42.10;25.30;;;3.90;99.90;;;3.93;84.61;102239.06;4956664;29;20646;-75
2022/03/16 05:55:33;;;;;;;48.85;27.70;;;4.00;99.90;;;3.94;84.67;102231.91;4956904;28;20604;-74
2022/03/16 05:58:03;;;;;;;47.25;25.75;;;4.00;99.90;;;3.94;84.63;102238.13;4956773;29;20189;-74
2022/03/16 06:00:33;;;;;;;41.13;24.88;;;4.00;99.90;;;4.00;84.10;102235.91;4956998;28;20223;-74
2022/03/16 06:03:02;;;;;;;40.42;24.70;;;4.10;99.90;;;4.14;83.78;102238.28;4955560;29;20649;-74
2022/03/16 06:05:32;;;;;;;41.58;23.60;;;4.20;99.90;;;4.16;83.67;102241.69;4955971;29;20686;-72
2022/03/16 06:08:01;;;;;;;37.70;26.50;;;4.20;99.90;;;4.12;83.39;102245.59;4955134;28;20191;-73
2022/03/16 06:10:30;;;;;;;46.50;27.33;;;4.20;99.90;;;4.10;83.65;102248.41;4956174;28;20216;-73
2022/03/16 06:13:03;;;;;;;43.78;24.92;;;4.20;99.90;;;4.11;82.93;102243.91;4956065;29;20208;-73
2022/03/16 06:15:39;;;;;;;34.85;25.33;;;4.20;99.90;;;4.15;82.83;102246.19;4975701;28;20196;-75
2022/03/16 06:18:08;;;;;;;30.73;21.42;;;4.20;99.90;;;4.22;82.56;102246.53;4956024;29;20643;-74
2022/03/16 06:20:37;;;;;;;32.97;22.48;;;4.20;99.90;;;4.19;81.93;102246.78;4955696;28;20208;-74
2022/03/16 06:23:08;;;;;;;35.25;26.05;;;4.20;99.90;;;4.10;81.72;102247.56;4954506;29;20185;-73
2022/03/16 06:25:42;;;;;;;37.70;23.50;;;4.20;99.90;;;4.12;81.96;102246.44;4954946;29;20231;-73
2022/03/16 06:28:12;;;;;;;41.42;22.85;;;4.20;99.90;;;4.20;81.90;102256.53;4953820;28;20229;-73
2022/03/16 06:30:41;;;;;;;41.88;23.10;;;4.20;99.90;;;4.14;81.98;102259.72;4955314;28;20223;-75
2022/03/16 06:33:10;;;;;;;40.15;23.80;;;4.20;99.90;;;4.28;82.31;102256.75;4955202;28;20547;-74
2022/03/16 06:35:39;;;;;;;40.15;25.77;;;4.30;99.90;;;4.39;81.83;102259.38;4955822;29;20659;-74
2022/03/16 06:38:08;;;;;;;37.05;24.95;;;4.40;99.90;;;4.49;81.35;102260.31;4955300;29;20188;-72
2022/03/16 06:40:37;;;;;;;43.72;23.48;;;4.50;99.90;;;4.56;81.02;102256.09;4956090;28;20329;-74
2022/03/16 06:43:06;;;;;;;43.80;25.73;;;4.50;99.90;;;4.75;80.48;102256.25;4955701;28;20683;-73
2022/03/16 06:45:37;;;;;;;37.90;25.60;;;4.70;99.90;;;4.78;80.34;102260.50;4968229;28;20180;-76
2022/03/16 06:48:06;;;;;;;43.38;25.20;;;4.70;99.90;;;4.86;80.57;102257.16;4977975;28;20208;-73
2022/03/16 06:50:35;;;;;;;36.33;23.60;;;4.80;99.90;;;4.87;80.26;102253.50;4973025;28;20218;-74
2022/03/16 06:53:04;;;;;;;40.42;26.83;;;4.90;99.90;;;4.96;80.03;102263.44;4967071;28;20208;-74
2022/03/16 06:55:33;;;;;;;43.08;26.40;;;4.90;99.90;;;4.99;80.02;102268.50;4970210;28;20671;-72
2022/03/16 06:58:02;;;;;;;40.83;26.25;;;5.00;99.90;;;5.06;79.66;102270.56;4954142;28;20247;-72
2022/03/16 07:00:33;;;;;;;38.13;24.50;;;5.10;99.90;;;5.01;79.69;102269.25;4954745;28;20596;-73
2022/03/16 07:03:07;;;;;;;42.13;27.50;;;5.10;99.90;;;5.16;79.19;102274.13;4970348;28;20697;-74
2022/03/16 07:05:39;;;;;;;39.92;27.92;;;5.10;99.90;;;5.10;79.48;102282.72;4976191;28;20512;-74
2022/03/16 07:08:11;;;;;;;38.22;24.40;;;5.10;99.90;;;5.40;78.90;102279.19;4970160;29;20243;-74
2022/03/16 07:10:42;;;;;;;36.63;24.02;;;5.30;99.90;;;5.50;77.78;102285.44;4969716;28;20212;-73
2022/03/16 07:13:12;;;;;;;40.20;27.67;;;5.40;99.90;;;5.55;77.65;102285.03;4967852;29;20204;-74
2022/03/16 07:15:46;;;;;;;40.55;22.85;;;5.50;99.90;;;5.51;77.20;102287.16;4972138;28;20291;-71
2022/03/16 07:18:16;;;;;;;38.75;28.95;;;5.50;99.90;;;5.26;77.78;102287.59;4958779;28;20247;-71
2022/03/16 07:20:47;;;;;;;45.45;29.10;;;5.40;99.90;;;5.15;79.41;102283.16;4953210;28;20236;-74
2022/03/16 07:23:18;;;;;;;45.65;31.42;;;5.30;99.90;;;5.28;78.45;102279.44;4957874;29;20188;-72
2022/03/16 07:25:49;;;;;;;43.05;30.38;;;5.30;99.90;;;5.24;78.75;102284.19;4957887;29;20196;-74
2022/03/16 07:28:20;;;;;;;39.38;29.02;;;5.30;99.90;;;5.46;78.49;102281.34;4958451;29;20188;-74
2022/03/16 07:30:49;;;;;;;40.53;26.40;;;5.30;99.90;;;5.75;77.51;102284.13;4960100;28;20219;-75
2022/03/16 07:33:20;;;;;;;41.13;26.20;;;5.60;99.90;;;5.75;76.48;102285.97;4958913;29;20638;-70
2022/03/16 07:35:51;;;;;;;37.17;26.65;;;5.70;99.90;;;5.46;76.84;102283.19;4971153;28;20192;-73
2022/03/16 07:38:19;;;;;;;32.90;25.38;;;5.60;99.90;;;5.18;77.87;102292.81;4953085;28;20216;-71
2022/03/16 07:40:49;;;;;;;37.05;22.73;;;5.40;99.90;;;5.07;78.85;102295.56;4954943;28;20294;-72
2022/03/16 07:43:18;;;;;;;34.20;22.88;;;5.20;99.90;;;5.00;78.77;102299.72;4955150;29;20227;-72
2022/03/16 07:45:47;;;;;;;36.80;23.63;;;5.10;99.90;;;5.04;78.90;102293.13;4953205;29;20199;-73
2022/03/16 07:48:16;;;;;;;36.58;22.92;;;5.00;99.90;;;5.04;78.62;102303.84;4954836;29;20274;-73
2022/03/16 07:50:47;;;;;;;43.05;22.55;;;5.10;99.90;;;4.96;79.37;102300.97;4954646;28;20415;-73
2022/03/16 07:53:16;;;;;;;36.65;24.90;;;5.00;99.90;;;4.89;78.74;102299.81;4951983;28;20230;-72
2022/03/16 07:55:47;;;;;;;30.20;20.20;;;4.90;99.90;;;4.95;79.26;102301.97;4949567;28;20219;-72
2022/03/16 07:58:16;;;;;;;32.25;21.02;;;4.90;99.90;;;5.13;78.20;102301.22;4933046;29;20185;-72
2022/03/16 08:00:45;;;;;;;27.98;20.52;;;5.10;99.90;;;5.28;78.07;102307.09;4933036;29;20700;-72
2022/03/16 08:03:15;;;;;;;26.50;20.58;;;5.10;99.90;;;5.28;77.60;102308.97;4947850;29;20193;-72
2022/03/16 08:05:47;;;;;;;34.75;21.33;;;5.20;99.90;;;5.61;76.62;102309.53;4938974;29;20288;-71
2022/03/16 08:08:17;;;;;;;30.50;21.40;;;5.40;99.90;;;5.45;76.26;102329.78;4951455;29;20671;-72
2022/03/16 08:10:46;;;;;;;32.70;20.75;;;5.50;99.90;;;5.34;76.83;102332.56;4968940;28;20375;-74
2022/03/16 08:13:15;;;;;;;26.80;19.45;;;5.40;99.90;;;5.27;77.24;102340.31;4974195;28;20199;-71
2022/03/16 08:15:44;;;;;;;32.30;23.13;;;5.30;99.90;;;5.28;77.13;102339.31;4955216;28;20192;-70
2022/03/16 08:18:13;;;;;;;29.42;19.80;;;5.30;99.90;;;5.13;77.89;102349.53;4952878;28;20168;-72
2022/03/16 08:20:43;;;;;;;31.50;22.50;;;5.20;99.90;;;4.97;78.40;102361.72;4951901;28;20211;-72
2022/03/16 08:23:13;;;;;;;49.35;24.55;;;5.10;99.90;;;4.94;78.65;102356.63;4952010;28;20196;-72
2022/03/16 08:25:55;;;;;;;43.17;24.50;;;5.10;99.90;;;5.00;78.89;102356.06;4952039;28;20231;-71
2022/03/16 08:28:24;;;;;;;39.65;26.98;;;5.00;99.90;;;5.31;78.46;102349.78;4951788;28;20243;-72
2022/03/16 08:30:53;;;;;;;43.85;26.08;;;5.10;99.90;;;5.44;77.64;102360.31;4951353;28;20588;-75
2022/03/16 08:33:23;;;;;;;35.65;25.90;;;5.40;99.90;;;5.61;77.99;102360.56;4951844;29;20622;-72
2022/03/16 08:35:52;;;;;;;41.38;23.83;;;5.50;99.90;;;5.91;76.33;102358.84;4951645;28;20196;-72
2022/03/16 08:38:23;;;;;;;34.10;19.98;;;5.70;99.90;;;5.72;76.53;102358.75;4951636;28;20541;-71
2022/03/16 08:40:52;;;;;;;34.30;21.60;;;5.70;99.90;;;5.60;77.05;102364.22;4952487;28;20406;-70
2022/03/16 08:43:21;;;;;;;31.20;20.48;;;5.60;99.90;;;5.85;76.69;102368.28;4952763;28;20267;-73
2022/03/16 08:45:50;;;;;;;41.63;21.20;;;5.70;99.90;;;5.90;77.00;102370.59;4952810;28;20631;-72
2022/03/16 08:48:19;;;;;;;31.95;18.45;;;5.90;99.90;;;5.79;76.84;102365.28;4952375;28;20659;-73
2022/03/16 08:50:49;;;;;;;29.88;18.80;;;5.90;99.90;;;5.92;76.67;102371.28;4950809;28;20314;-72
2022/03/16 08:53:18;;;;;;;32.75;19.90;;;5.90;99.90;;;5.81;76.75;102371.38;4952211;28;20643;-75
2022/03/16 08:55:49;;;;;;;29.85;19.80;;;5.80;99.90;;;5.57;77.97;102372.53;4967631;28;20192;-74
2022/03/16 08:58:19;;;;;;;26.98;18.42;;;5.70;99.90;;;5.75;77.50;102375.47;4952380;29;20663;-72
2022/03/16 09:00:48;;;;;;;24.25;18.60;;;5.80;99.90;;;5.86;77.07;102382.53;4953077;28;20219;-72
2022/03/16 09:03:17;;;;;;;25.77;16.35;;;5.80;99.90;;;5.77;77.33;102378.00;4952135;28;20184;-72
2022/03/16 09:05:47;;;;;;;21.38;15.75;;;5.90;99.90;;;6.07;76.66;102372.63;4953272;28;20199;-72
2022/03/16 09:08:18;;;;;;;29.17;18.30;;;6.00;99.90;;;6.20;76.50;102380.44;4955678;28;20282;-71
2022/03/16 09:10:49;;;;;;;19.73;15.43;;;6.10;99.90;;;6.60;75.21;102372.28;4955443;28;20306;-72
2022/03/16 09:13:19;;;;;;;24.50;16.63;;;6.20;99.90;;;6.87;73.83;102391.31;4955716;28;20548;-73
2022/03/16 09:15:49;;;;;;;22.40;14.80;;;6.50;99.90;;;6.78;73.19;102382.22;4956542;29;20716;-73
2022/03/16 09:18:18;;;;;;;23.23;16.83;;;6.70;99.90;;;6.72;73.93;102384.63;4955900;28;20203;-72
2022/03/16 09:20:53;;;;;;;21.67;16.13;;;6.70;99.90;;;6.68;74.25;102388.59;4954848;28;20220;-71
2022/03/16 09:23:22;;;;;;;22.52;15.98;;;6.70;99.90;;;6.97;73.47;102402.91;4956078;28;20204;-71
2022/03/16 09:25:52;;;;;;;21.70;16.42;;;6.70;99.90;;;7.07;73.30;102398.34;4956280;28;20665;-71
2022/03/16 09:28:22;;;;;;;20.60;16.48;;;6.80;1.00;;;7.47;72.28;102400.00;4956304;28;20181;-72
2022/03/16 09:30:51;;;;;;;21.60;15.15;;;7.10;5.50;;;7.63;71.56;102411.88;4954787;28;20218;-73
2022/03/16 09:33:21;;;;;;;18.73;16.23;;;7.30;1.00;;;7.55;71.50;102413.59;4956263;28;20220;-71
2022/03/16 09:35:51;;;;;;;21.42;16.23;;;7.30;99.90;;;7.39;71.83;102411.50;4968864;28;20184;-73
2022/03/16 09:38:20;;;;;;;22.27;16.25;;;7.40;99.90;;;6.99;72.80;102419.75;4975533;28;20550;-74
2022/03/16 09:40:57;;;;;;;33.25;16.25;;;7.30;99.90;;;7.05;73.04;102410.25;4942584;29;20223;-72
2022/03/16 09:43:26;;;;;;;23.55;16.80;;;7.20;99.90;;;6.98;73.19;102418.03;4958083;28;20192;-74
2022/03/16 09:45:58;;;;;;;23.77;17.88;;;7.00;1.00;;;6.86;73.51;102421.88;4966574;28;20273;-71
2022/03/16 09:48:28;;;;;;;25.23;19.15;;;7.00;1.00;;;6.98;73.79;102418.03;4965438;28;20196;-73
2022/03/16 09:50:58;;;;;;;20.95;16.27;;;7.00;1.00;;;7.13;73.33;102432.78;4962555;28;20226;-73
2022/03/16 09:53:28;;;;;;;25.27;17.27;;;7.10;1.00;;;6.91;73.96;102419.63;4963076;28;20220;-72
2022/03/16 09:55:59;;;;;;;23.70;15.13;;;7.00;1.00;;;7.05;73.74;102424.56;4962511;28;20279;-72
2022/03/16 09:58:29;;;;;;;23.85;18.20;;;7.00;1.00;;;7.25;73.41;102428.09;4955834;28;20293;-71
2022/03/16 10:01:06;;;;;;;24.42;17.10;;;7.10;1.00;;;7.28;73.00;102417.88;4984770;23;20219;31
2022/03/16 10:03:37;;;;;;;23.63;16.73;;;7.20;1.00;;;7.38;72.85;102424.13;4966074;28;20211;-72
2022/03/16 10:06:08;;;;;;;22.92;16.85;;;7.20;1.00;;;7.38;72.68;102429.50;4976037;28;20246;-72
2022/03/16 10:08:39;;;;;;;23.55;17.17;;;7.40;99.90;;;7.61;72.43;102434.56;4976465;28;20184;-68
2022/03/16 10:14:10;;;;;;;27.10;17.15;;;7.50;99.90;;;7.30;73.02;102432.06;4994556;28;20231;-71
2022/03/16 10:19:54;;;;;;;21.52;15.95;;;7.30;99.90;;;7.54;72.77;102428.06;4939204;29;20338;-74
2022/03/16 10:22:26;;;;;;;23.13;17.15;;;7.50;99.90;;;7.66;72.74;102434.97;4930226;29;20189;-74
2022/03/16 10:25:02;;;;;;;22.40;16.17;;;7.50;99.90;;;7.74;71.71;102435.09;4943745;29;20207;-74
2022/03/16 10:27:37;;;;;;;24.55;17.80;;;7.70;99.90;;;7.90;71.61;102435.31;4945067;29;20200;-76
2022/03/16 10:30:09;;;;;;;24.52;16.50;;;7.80;99.90;;;8.15;71.08;102429.25;4937056;29;20295;-73